Madares — SVA6080 — position and weather

sailwx.info

Track history (hours):
 
Tides and Currents Weather Stations Pressure Air Temp Water Temp Dewpoint Dewpoint Depression Visibility Wind Speed Wind Dir Waves Ship Positions

Madares

Last reported at 2017-Nov-19 03:55 UTC. Time now 2017-Nov-24 14:40 UTC.
Position N 37°44' E 024°50'.

Length 38 m; draft 4 m.

Type: Cargo ship. MMSI: 239863100.

Date/timePositionNaut miles runAvg speedWind from/ knotsBaromVisibWave heightAir tempDewpointWater temp
2017-Nov-19 03:55N 37°44' E 024°50'510.4
2017-Nov-19 03:28N 37°40' E 024°54'510.5
2017-Nov-19 03:00N 37°37' E 024°58'1010.4
2017-Nov-19 02:01N 37°31' E 025°08'010.6
2017-Nov-19 02:00N 37°31' E 025°08'510.7
2017-Nov-19 01:30N 37°29' E 025°15'4 8.1
2017-Nov-19 01:00N 37°27' E 025°19'0 0.4
2017-Nov-19 00:30N 37°27' E 025°20'0 0.0
2017-Nov-19 00:00N 37°27' E 025°20'0 0.0
2017-Nov-18 23:30N 37°27' E 025°20'0 0.0
2017-Nov-18 23:00N 37°27' E 025°20'0 0.0
2017-Nov-18 22:30N 37°27' E 025°20'0 0.0
2017-Nov-18 22:00N 37°27' E 025°20'0 0.0
2017-Nov-18 21:30N 37°27' E 025°20'0 0.0
2017-Nov-18 21:00N 37°27' E 025°20'0 0.0
2017-Nov-18 20:30N 37°27' E 025°20'0 0.0
2017-Nov-18 20:00N 37°27' E 025°20'0 0.0
2017-Nov-18 19:30N 37°27' E 025°20'0 0.0
2017-Nov-18 19:00N 37°27' E 025°20'0 0.0
2017-Nov-18 18:30N 37°27' E 025°20'0 0.0
2017-Nov-18 18:00N 37°27' E 025°20'0 0.0
2017-Nov-18 17:30N 37°27' E 025°20'0 0.0
2017-Nov-18 17:00N 37°27' E 025°20'0 0.0
2017-Nov-18 16:30N 37°27' E 025°20'0 0.0
2017-Nov-18 16:00N 37°27' E 025°20'0 0.0
2017-Nov-18 15:30N 37°27' E 025°20'0 0.0
2017-Nov-18 15:00N 37°27' E 025°20'0 0.0
2017-Nov-18 14:30N 37°27' E 025°20'0 0.0
2017-Nov-18 14:00N 37°27' E 025°20'0 0.0
2017-Nov-18 13:30N 37°27' E 025°20'0 0.0
2017-Nov-18 13:00N 37°27' E 025°20'0 0.0
2017-Nov-18 12:30N 37°27' E 025°20'0 0.0
2017-Nov-18 12:00N 37°27' E 025°20'0 0.0
2017-Nov-18 11:30N 37°27' E 025°20'0 0.0
2017-Nov-18 11:00N 37°27' E 025°20'0 0.0
2017-Nov-18 10:30N 37°27' E 025°20'0 0.0
2017-Nov-18 10:00N 37°27' E 025°20'0 0.0
2017-Nov-18 09:30N 37°27' E 025°20'0 0.0
2017-Nov-18 09:00N 37°27' E 025°20'0 0.0
2017-Nov-18 08:30N 37°27' E 025°20'0 0.3
2017-Nov-18 08:00N 37°27' E 025°19'1 1.7
2017-Nov-18 07:30N 37°28' E 025°19'0 0.0
2017-Nov-18 07:00N 37°28' E 025°19'0 0.0
2017-Nov-18 06:30N 37°28' E 025°19'0 0.0
2017-Nov-18 06:00N 37°28' E 025°19'0 0.0
2017-Nov-18 05:30N 37°28' E 025°19'0 0.0
2017-Nov-18 05:00N 37°28' E 025°19'1 1.1
2017-Nov-18 04:30N 37°28' E 025°19'1 2.8
2017-Nov-18 04:00N 37°28' E 025°17'3 6.5
2017-Nov-18 03:30N 37°31' E 025°15'4 7.8
2017-Nov-18 03:00N 37°28' E 025°11'4 8.5
2017-Nov-18 02:30N 37°31' E 025°07'5 9.1
2017-Nov-18 02:00N 37°34' E 025°02'7 9.1
2017-Nov-18 01:11N 37°38' E 024°55'2 9.1
2017-Nov-18 01:00N 37°39' E 024°53'5 9.1
2017-Nov-18 00:29N 37°42' E 024°48'49 1.8
2017-Nov-16 21:14N 37°39' E 023°47'210.4
2017-Nov-16 21:00N 37°39' E 023°44'510.4
2017-Nov-16 20:30N 37°43' E 023°40'510.5
2017-Nov-16 20:00N 37°48' E 023°37'5 9.9
2017-Nov-16 19:30N 37°50' E 023°31'510.6
2017-Nov-16 19:00N 37°52' E 023°25'5 9.6
2017-Nov-16 18:30N 37°56' E 023°22'3 6.9
2017-Nov-16 18:00N 37°59' E 023°25'4 8.5
2017-Nov-16 17:30N 38°01' E 023°29'5 9.2
2017-Nov-16 17:00N 38°02' E 023°35'0 0.5
2017-Nov-16 16:31N 38°02' E 023°35'0 0.0
2017-Nov-16 16:00N 38°02' E 023°35'0 0.0
2017-Nov-16 15:30N 38°02' E 023°35'0 0.0
2017-Nov-16 15:00N 38°02' E 023°35'0 0.0
2017-Nov-16 14:30N 38°02' E 023°35'0 0.0
2017-Nov-16 13:59N 38°02' E 023°35'0 0.0
2017-Nov-16 13:30N 38°02' E 023°35'0 0.0
2017-Nov-16 13:00N 38°02' E 023°35'0 0.0
2017-Nov-16 12:30N 38°02' E 023°35'0 0.0
2017-Nov-16 12:00N 38°02' E 023°35'0 0.0
2017-Nov-16 11:30N 38°02' E 023°35'0 0.0
2017-Nov-16 11:00N 38°02' E 023°35'0 0.0
2017-Nov-16 10:29N 38°02' E 023°35'0 0.0
2017-Nov-16 09:59N 38°02' E 023°35'0 0.0
2017-Nov-16 09:30N 38°02' E 023°35'0 0.0
2017-Nov-16 09:00N 38°02' E 023°35'0 0.0
2017-Nov-16 08:30N 38°02' E 023°35'0 0.0
2017-Nov-16 08:00N 38°02' E 023°35'0 0.0
2017-Nov-16 07:14N 38°02' E 023°35'0 0.0
2017-Nov-16 06:48N 38°02' E 023°35'0 0.0
2017-Nov-16 06:30N 38°02' E 023°35'0 0.0
2017-Nov-16 06:00N 38°02' E 023°35'0 0.0
2017-Nov-16 05:30N 38°02' E 023°35'0 0.0
2017-Nov-16 05:00N 38°02' E 023°35'0 0.0
2017-Nov-16 04:30N 38°02' E 023°35'0 0.0
2017-Nov-16 04:00N 38°02' E 023°35'0 0.0
2017-Nov-16 03:30N 38°02' E 023°35'0 0.0
2017-Nov-16 03:00N 38°02' E 023°35'0 0.0
2017-Nov-16 02:30N 38°02' E 023°35'0 0.0
2017-Nov-16 01:59N 38°02' E 023°35'0 0.0
2017-Nov-16 01:28N 38°02' E 023°35'0 0.0
2017-Nov-16 00:58N 38°02' E 023°35'0 0.0
2017-Nov-16 00:29N 38°02' E 023°35'0 0.0
2017-Nov-15 22:47N 38°02' E 023°35'0 0.0
2017-Nov-15 21:34N 38°02' E 023°35'0 0.1
2017-Nov-15 21:30N 38°02' E 023°35'0 0.0
2017-Nov-15 20:58N 38°02' E 023°35'0 0.0
2017-Nov-15 20:30N 38°02' E 023°35'0 0.0
2017-Nov-15 19:58N 38°02' E 023°35'0 0.0
2017-Nov-15 19:30N 38°02' E 023°35'0 0.0
2017-Nov-15 17:03N 38°02' E 023°35'0 0.2
2017-Nov-15 17:00N 38°02' E 023°35'1 2.7
2017-Nov-15 16:30N 38°02' E 023°34'510.1
2017-Nov-15 16:00N 38°00' E 023°28'3 6.7
2017-Nov-15 15:30N 37°58' E 023°25'510.2
2017-Nov-15 15:00N 37°56' E 023°19'5 9.9
2017-Nov-15 14:30N 37°55' E 023°13'510.3
2017-Nov-15 14:00N 37°54' E 023°06'4 7.5
2017-Nov-15 13:30N 37°55' E 023°02'0 0.1
2017-Nov-15 12:58N 37°55' E 023°02'0 0.1
2017-Nov-15 12:25N 37°55' E 023°02'0 0.0
2017-Nov-15 11:58N 37°55' E 023°02'0 0.0
2017-Nov-15 11:25N 37°55' E 023°02'0 0.0
2017-Nov-15 10:58N 37°55' E 023°02'0 0.0
2017-Nov-15 10:28N 37°55' E 023°02'0 0.1
2017-Nov-15 09:58N 37°55' E 023°02'0 0.0
2017-Nov-15 09:28N 37°55' E 023°02'0 0.1
2017-Nov-15 08:58N 37°55' E 023°02'0 0.0
2017-Nov-15 08:28N 37°55' E 023°02'0 0.0
2017-Nov-15 07:58N 37°55' E 023°02'0 0.1
2017-Nov-15 07:28N 37°55' E 023°02'0 0.0
2017-Nov-15 06:58N 37°55' E 023°02'0 0.0
2017-Nov-15 06:28N 37°55' E 023°02'0 0.1
2017-Nov-15 05:58N 37°55' E 023°02'0 0.1
2017-Nov-15 05:28N 37°55' E 023°02'0 0.1
2017-Nov-15 04:58N 37°55' E 023°02'0 0.1
2017-Nov-15 04:28N 37°55' E 023°02'0 0.0
2017-Nov-15 03:58N 37°55' E 023°02'0 0.0
2017-Nov-15 03:28N 37°55' E 023°02'0 0.0
2017-Nov-15 02:58N 37°55' E 023°02'0 0.0
2017-Nov-15 02:28N 37°55' E 023°02'0 0.1
2017-Nov-15 01:58N 37°55' E 023°02'0 0.0
2017-Nov-15 01:28N 37°55' E 023°02'0 0.1
2017-Nov-15 00:55N 37°55' E 023°02'0 0.1
2017-Nov-15 00:28N 37°55' E 023°02'0 0.0
2017-Nov-14 23:58N 37°55' E 023°02'0 0.0
2017-Nov-14 23:28N 37°55' E 023°02'0 0.0
2017-Nov-14 22:58N 37°55' E 023°02'0 0.1
2017-Nov-14 22:28N 37°55' E 023°02'0 0.0
2017-Nov-14 21:58N 37°55' E 023°02'0 0.1
2017-Nov-14 21:28N 37°55' E 023°02'0 0.1
2017-Nov-14 20:58N 37°55' E 023°02'0 0.1
2017-Nov-14 20:28N 37°55' E 023°02'0 0.0
2017-Nov-14 19:58N 37°55' E 023°02'0 0.0
2017-Nov-14 19:28N 37°55' E 023°02'0 0.0
2017-Nov-14 18:58N 37°55' E 023°02'0 0.0
2017-Nov-14 18:28N 37°55' E 023°02'0 0.0
2017-Nov-14 17:58N 37°55' E 023°02'0 0.0
2017-Nov-14 17:28N 37°55' E 023°02'0 0.0
2017-Nov-14 16:58N 37°55' E 023°02'0 0.0
2017-Nov-14 16:28N 37°55' E 023°02'0 0.0
2017-Nov-14 15:58N 37°55' E 023°02'0 0.0
2017-Nov-14 15:28N 37°55' E 023°02'0 0.1
2017-Nov-14 14:58N 37°55' E 023°02'0 0.0
2017-Nov-14 14:28N 37°55' E 023°02'0 0.1
2017-Nov-14 14:01N 37°55' E 023°02'0 0.0
2017-Nov-14 13:31N 37°55' E 023°02'0 0.1
2017-Nov-14 12:58N 37°55' E 023°02'0 0.0
2017-Nov-14 12:30N 37°55' E 023°02'0 0.0
2017-Nov-14 12:00N 37°55' E 023°02'0 0.0
2017-Nov-14 11:30N 37°55' E 023°02'0 0.0
2017-Nov-14 11:00N 37°55' E 023°02'0 0.0
2017-Nov-14 10:30N 37°55' E 023°02'0 0.0
2017-Nov-14 10:00N 37°55' E 023°02'0 0.0
2017-Nov-14 09:30N 37°55' E 023°02'0 0.0
2017-Nov-14 09:00N 37°55' E 023°02'0 0.0
2017-Nov-14 08:30N 37°55' E 023°02'0 0.0
2017-Nov-14 08:00N 37°55' E 023°02'0 0.0
2017-Nov-14 07:30N 37°55' E 023°02'0 0.0
2017-Nov-14 07:00N 37°55' E 023°02'0 0.1
2017-Nov-14 06:30N 37°55' E 023°02'0 0.0
2017-Nov-14 06:00N 37°55' E 023°02'0 0.0
2017-Nov-14 05:30N 37°55' E 023°02'0 0.1
2017-Nov-14 05:00N 37°55' E 023°02'0 0.1
2017-Nov-14 04:30N 37°55' E 023°02'0 0.1
2017-Nov-14 04:00N 37°55' E 023°02'0 0.1
2017-Nov-14 03:30N 37°55' E 023°02'0 0.0
2017-Nov-14 03:00N 37°55' E 023°02'0 0.0
2017-Nov-14 02:30N 37°55' E 023°02'0 0.0
2017-Nov-14 02:00N 37°55' E 023°02'0 0.1
2017-Nov-14 01:30N 37°55' E 023°02'0 0.1
2017-Nov-14 01:00N 37°55' E 023°02'0 0.0
2017-Nov-14 00:30N 37°55' E 023°02'0 0.0
2017-Nov-14 00:00N 37°55' E 023°02'0 0.1
2017-Nov-13 23:30N 37°55' E 023°02'0 0.0
2017-Nov-13 23:00N 37°55' E 023°02'0 0.0
2017-Nov-13 22:30N 37°55' E 023°02'0 0.1
2017-Nov-13 22:00N 37°55' E 023°02'0 0.0
2017-Nov-13 02:00N 37°55' E 023°01'0 0.0
2017-Nov-13 01:31N 37°55' E 023°01'0 0.0
2017-Nov-13 01:00N 37°55' E 023°01'0 0.0
2017-Nov-13 00:30N 37°55' E 023°01'0 0.0
2017-Nov-13 00:00N 37°55' E 023°01'0 0.0
2017-Nov-12 23:30N 37°55' E 023°01'0 0.0
2017-Nov-12 23:00N 37°55' E 023°01'0 0.0
2017-Nov-12 22:30N 37°55' E 023°01'0 0.0
2017-Nov-12 22:00N 37°55' E 023°01'0 0.0
2017-Nov-12 21:30N 37°55' E 023°01'0 0.0
2017-Nov-12 21:00N 37°55' E 023°01'0 0.0
2017-Nov-12 20:30N 37°55' E 023°01'0 0.0
2017-Nov-12 20:00N 37°55' E 023°01'0 0.0
2017-Nov-12 19:30N 37°55' E 023°01'0 0.0
2017-Nov-12 19:00N 37°55' E 023°01'0 0.0
2017-Nov-12 18:30N 37°55' E 023°01'0 0.0
2017-Nov-12 18:00N 37°55' E 023°01'0 0.0
2017-Nov-12 17:30N 37°55' E 023°01'0 0.0
2017-Nov-12 17:00N 37°55' E 023°01'0 0.0
2017-Nov-12 16:30N 37°55' E 023°01'0 0.0
2017-Nov-12 16:00N 37°55' E 023°01'0 0.0
2017-Nov-12 15:30N 37°55' E 023°01'0 0.0
2017-Nov-12 15:01N 37°55' E 023°01'0 0.0
2017-Nov-12 14:30N 37°55' E 023°01'0 0.0
2017-Nov-12 14:00N 37°55' E 023°01'0 0.0
2017-Nov-12 13:30N 37°55' E 023°01'0 0.0
2017-Nov-12 13:00N 37°55' E 023°01'0 0.0
2017-Nov-12 12:30N 37°55' E 023°01'0 0.0
2017-Nov-12 12:00N 37°55' E 023°01'0 0.0
2017-Nov-12 11:30N 37°55' E 023°01'0 0.0
2017-Nov-12 11:00N 37°55' E 023°01'0 0.0
2017-Nov-12 10:30N 37°55' E 023°01'0 0.0
2017-Nov-12 10:00N 37°55' E 023°01'0 0.0
2017-Nov-12 09:30N 37°55' E 023°01'0 0.0
2017-Nov-12 09:00N 37°55' E 023°01'0 0.0
2017-Nov-12 08:31N 37°55' E 023°01'0 0.0
2017-Nov-12 08:00N 37°55' E 023°01'0 0.0
2017-Nov-12 07:30N 37°55' E 023°01'0 0.0
2017-Nov-12 07:00N 37°55' E 023°01'0 0.0
2017-Nov-12 06:30N 37°55' E 023°01'0 0.0
2017-Nov-12 06:00N 37°55' E 023°01'0 0.0
2017-Nov-12 05:30N 37°55' E 023°01'0 0.0
2017-Nov-12 05:00N 37°55' E 023°01'0 0.0
2017-Nov-12 04:30N 37°55' E 023°01'0 0.0
2017-Nov-12 04:00N 37°55' E 023°01'0 0.0
2017-Nov-12 03:30N 37°55' E 023°01'0 0.0
2017-Nov-12 03:00N 37°55' E 023°01'0 0.0
2017-Nov-12 02:30N 37°55' E 023°01'0 0.0
2017-Nov-12 02:00N 37°55' E 023°01'0 0.0
2017-Nov-12 01:30N 37°55' E 023°01'0 0.0
2017-Nov-12 01:00N 37°55' E 023°01'0 0.0
2017-Nov-12 00:30N 37°55' E 023°01'0 0.0
2017-Nov-12 00:00N 37°55' E 023°01'0 0.0
2017-Nov-11 23:30N 37°55' E 023°01'0 0.0
2017-Nov-11 23:00N 37°55' E 023°01'0 0.0
2017-Nov-11 22:30N 37°55' E 023°01'0 0.0
2017-Nov-11 22:00N 37°55' E 023°01'0 0.0
2017-Nov-11 21:30N 37°55' E 023°01'0 0.0
2017-Nov-11 21:00N 37°55' E 023°01'0 0.0
2017-Nov-11 20:30N 37°55' E 023°01'0 0.0
2017-Nov-11 20:00N 37°55' E 023°01'0 0.0
2017-Nov-11 19:30N 37°55' E 023°01'0 0.0
2017-Nov-11 19:00N 37°55' E 023°01'0 0.0
2017-Nov-11 18:30N 37°55' E 023°01'0 0.0
2017-Nov-11 18:00N 37°55' E 023°01'0 0.0
2017-Nov-11 17:30N 37°55' E 023°01'0 0.0
2017-Nov-11 17:00N 37°55' E 023°01'0 0.0
2017-Nov-11 16:30N 37°55' E 023°01'0 0.0
2017-Nov-11 16:00N 37°55' E 023°01'0 0.0
2017-Nov-11 15:30N 37°55' E 023°01'0 0.0
2017-Nov-11 15:00N 37°55' E 023°01'0 0.0
2017-Nov-11 14:30N 37°55' E 023°01'0 0.0
2017-Nov-11 14:00N 37°55' E 023°01'0 0.0
2017-Nov-11 13:31N 37°55' E 023°01'0 0.0
2017-Nov-11 13:00N 37°55' E 023°01'0 0.0
2017-Nov-11 12:30N 37°55' E 023°01'0 0.0
2017-Nov-11 12:00N 37°55' E 023°01'0 0.0
2017-Nov-11 11:30N 37°55' E 023°01'0 0.0
2017-Nov-11 11:00N 37°55' E 023°01'0 0.0
2017-Nov-11 10:30N 37°55' E 023°01'0 0.0
2017-Nov-11 10:00N 37°55' E 023°01'0 0.0
2017-Nov-11 09:30N 37°55' E 023°01'0 0.0
2017-Nov-11 09:00N 37°55' E 023°01'0 0.0
2017-Nov-11 08:30N 37°55' E 023°01'0 0.0
2017-Nov-11 08:00N 37°55' E 023°01'0 0.0
2017-Nov-11 07:30N 37°55' E 023°01'0 0.0
2017-Nov-11 07:00N 37°55' E 023°01'0 0.0
2017-Nov-11 06:30N 37°55' E 023°01'0 0.0
2017-Nov-11 06:00N 37°55' E 023°01'0 0.0
2017-Nov-11 05:30N 37°55' E 023°01'0 0.0
2017-Nov-11 05:00N 37°55' E 023°01'0 0.0
2017-Nov-11 04:30N 37°55' E 023°01'0 0.0
2017-Nov-11 04:00N 37°55' E 023°01'0 0.0
2017-Nov-11 03:30N 37°55' E 023°01'0 0.0
2017-Nov-11 03:00N 37°55' E 023°01'0 0.0
2017-Nov-11 02:30N 37°55' E 023°01'0 0.0
2017-Nov-11 02:00N 37°55' E 023°01'0 0.0
2017-Nov-11 01:30N 37°55' E 023°01'0 0.0
2017-Nov-11 01:00N 37°55' E 023°01'0 0.0
2017-Nov-11 00:30N 37°55' E 023°01'0 0.0
2017-Nov-11 00:00N 37°55' E 023°01'0 0.0
2017-Nov-10 23:30N 37°55' E 023°01'0 0.0
2017-Nov-10 23:00N 37°55' E 023°01'0 0.0
2017-Nov-10 22:30N 37°55' E 023°01'0 0.0
2017-Nov-10 22:00N 37°55' E 023°01'0 0.0
2017-Nov-10 21:30N 37°55' E 023°01'0 0.0
2017-Nov-10 21:00N 37°55' E 023°01'0 0.0
2017-Nov-10 20:30N 37°55' E 023°01'0 0.0
2017-Nov-10 20:00N 37°55' E 023°01'0 0.0
2017-Nov-10 19:30N 37°55' E 023°01'0 0.0
2017-Nov-10 19:00N 37°55' E 023°01'0 0.0
2017-Nov-10 18:30N 37°55' E 023°01'0 0.0
2017-Nov-10 18:00N 37°55' E 023°01'0 0.0
2017-Nov-10 17:30N 37°55' E 023°01'0 0.0
2017-Nov-10 17:00N 37°55' E 023°01'0 0.0
2017-Nov-10 16:30N 37°55' E 023°01'0 0.0
2017-Nov-10 16:00N 37°55' E 023°01'0 0.0
2017-Nov-10 15:30N 37°55' E 023°01'0 0.0
2017-Nov-10 15:00N 37°55' E 023°01'0 0.0
2017-Nov-10 14:30N 37°55' E 023°01'0 0.0
2017-Nov-10 14:00N 37°55' E 023°01'0 0.0
2017-Nov-10 13:30N 37°55' E 023°01'0 0.0
2017-Nov-10 13:00N 37°55' E 023°01'0 0.0
2017-Nov-10 12:30N 37°55' E 023°01'0 0.0
2017-Nov-10 12:00N 37°55' E 023°01'0 0.0
2017-Nov-10 11:30N 37°55' E 023°01'0 0.0
2017-Nov-10 11:00N 37°55' E 023°01'0 0.0
2017-Nov-10 10:30N 37°55' E 023°01'0 0.2
2017-Nov-10 10:00N 37°55' E 023°01'4 7.3
2017-Nov-10 09:30N 37°53' E 023°05'5 9.4
2017-Nov-10 09:00N 37°50' E 023°10'5 9.5
2017-Nov-10 08:30N 37°47' E 023°14'5 9.7
2017-Nov-10 08:00N 37°42' E 023°17'4 8.8
2017-Nov-10 07:30N 37°40' E 023°22'510.0
2017-Nov-10 07:00N 37°39' E 023°28'5 9.8
2017-Nov-10 06:30N 37°38' E 023°34'5 9.7
2017-Nov-10 06:00N 37°37' E 023°40'5 9.9
2017-Nov-10 05:30N 37°36' E 023°46'11 9.8
2017-Nov-10 04:25N 37°36' E 023°59'156 9.3
2017-Nov-09 11:35N 40°10' E 024°29'111.0
2017-Nov-09 11:30N 40°11' E 024°28'510.7
2017-Nov-09 11:00N 40°17' E 024°27'510.2
2017-Nov-09 10:30N 40°22' E 024°26'510.1
2017-Nov-09 10:00N 40°27' E 024°26'510.2
2017-Nov-09 09:30N 40°32' E 024°26'510.2
2017-Nov-09 09:00N 40°37' E 024°26'510.0
2017-Nov-09 08:30N 40°42' E 024°25'5 9.6
2017-Nov-09 08:00N 40°47' E 024°26'510.1
2017-Nov-09 07:30N 40°51' E 024°28'5 9.0
2017-Nov-09 07:00N 40°56' E 024°29'1 2.2
2017-Nov-09 06:30N 40°57' E 024°29'0 0.0
2017-Nov-09 06:00N 40°57' E 024°29'0 0.0
2017-Nov-09 05:30N 40°57' E 024°29'0 0.0
2017-Nov-09 05:00N 40°57' E 024°29'0 0.0
2017-Nov-09 04:30N 40°57' E 024°29'0 0.0
2017-Nov-09 04:00N 40°57' E 024°29'  
Track history (hours):
 
Tides and Currents Weather Stations Pressure Air Temp Water Temp Dewpoint Dewpoint Depression Visibility Wind Speed Wind Dir Waves Ship Positions

Madares

Last reported at 2017-Nov-19 03:55 UTC. Time now 2017-Nov-24 14:40 UTC.
Position N 37°44' E 024°50'.

Length 38 m; draft 4 m.

Type: Cargo ship. MMSI: 239863100.

Date/timePositionNaut miles runAvg speedWind from/ knotsBaromVisibWave heightAir tempDewpointWater temp
2017-Nov-19 03:55N 37°44' E 024°50'510.4
2017-Nov-19 03:28N 37°40' E 024°54'510.5
2017-Nov-19 03:00N 37°37' E 024°58'1010.4
2017-Nov-19 02:01N 37°31' E 025°08'010.6
2017-Nov-19 02:00N 37°31' E 025°08'510.7
2017-Nov-19 01:30N 37°29' E 025°15'4 8.1
2017-Nov-19 01:00N 37°27' E 025°19'0 0.4
2017-Nov-19 00:30N 37°27' E 025°20'0 0.0
2017-Nov-19 00:00N 37°27' E 025°20'0 0.0
2017-Nov-18 23:30N 37°27' E 025°20'0 0.0
2017-Nov-18 23:00N 37°27' E 025°20'0 0.0
2017-Nov-18 22:30N 37°27' E 025°20'0 0.0
2017-Nov-18 22:00N 37°27' E 025°20'0 0.0
2017-Nov-18 21:30N 37°27' E 025°20'0 0.0
2017-Nov-18 21:00N 37°27' E 025°20'0 0.0
2017-Nov-18 20:30N 37°27' E 025°20'0 0.0
2017-Nov-18 20:00N 37°27' E 025°20'0 0.0
2017-Nov-18 19:30N 37°27' E 025°20'0 0.0
2017-Nov-18 19:00N 37°27' E 025°20'0 0.0
2017-Nov-18 18:30N 37°27' E 025°20'0 0.0
2017-Nov-18 18:00N 37°27' E 025°20'0 0.0
2017-Nov-18 17:30N 37°27' E 025°20'0 0.0
2017-Nov-18 17:00N 37°27' E 025°20'0 0.0
2017-Nov-18 16:30N 37°27' E 025°20'0 0.0
2017-Nov-18 16:00N 37°27' E 025°20'0 0.0
2017-Nov-18 15:30N 37°27' E 025°20'0 0.0
2017-Nov-18 15:00N 37°27' E 025°20'0 0.0
2017-Nov-18 14:30N 37°27' E 025°20'0 0.0
2017-Nov-18 14:00N 37°27' E 025°20'0 0.0
2017-Nov-18 13:30N 37°27' E 025°20'0 0.0
2017-Nov-18 13:00N 37°27' E 025°20'0 0.0
2017-Nov-18 12:30N 37°27' E 025°20'0 0.0
2017-Nov-18 12:00N 37°27' E 025°20'0 0.0
2017-Nov-18 11:30N 37°27' E 025°20'0 0.0
2017-Nov-18 11:00N 37°27' E 025°20'0 0.0
2017-Nov-18 10:30N 37°27' E 025°20'0 0.0
2017-Nov-18 10:00N 37°27' E 025°20'0 0.0
2017-Nov-18 09:30N 37°27' E 025°20'0 0.0
2017-Nov-18 09:00N 37°27' E 025°20'0 0.0
2017-Nov-18 08:30N 37°27' E 025°20'0 0.3
2017-Nov-18 08:00N 37°27' E 025°19'1 1.7
2017-Nov-18 07:30N 37°28' E 025°19'0 0.0
2017-Nov-18 07:00N 37°28' E 025°19'0 0.0
2017-Nov-18 06:30N 37°28' E 025°19'0 0.0
2017-Nov-18 06:00N 37°28' E 025°19'0 0.0
2017-Nov-18 05:30N 37°28' E 025°19'0 0.0
2017-Nov-18 05:00N 37°28' E 025°19'1 1.1
2017-Nov-18 04:30N 37°28' E 025°19'1 2.8
2017-Nov-18 04:00N 37°28' E 025°17'3 6.5
2017-Nov-18 03:30N 37°31' E 025°15'4 7.8
2017-Nov-18 03:00N 37°28' E 025°11'4 8.5
2017-Nov-18 02:30N 37°31' E 025°07'5 9.1
2017-Nov-18 02:00N 37°34' E 025°02'7 9.1
2017-Nov-18 01:11N 37°38' E 024°55'2 9.1
2017-Nov-18 01:00N 37°39' E 024°53'5 9.1
2017-Nov-18 00:29N 37°42' E 024°48'49 1.8
2017-Nov-16 21:14N 37°39' E 023°47'210.4
2017-Nov-16 21:00N 37°39' E 023°44'510.4
2017-Nov-16 20:30N 37°43' E 023°40'510.5
2017-Nov-16 20:00N 37°48' E 023°37'5 9.9
2017-Nov-16 19:30N 37°50' E 023°31'510.6
2017-Nov-16 19:00N 37°52' E 023°25'5 9.6
2017-Nov-16 18:30N 37°56' E 023°22'3 6.9
2017-Nov-16 18:00N 37°59' E 023°25'4 8.5
2017-Nov-16 17:30N 38°01' E 023°29'5 9.2
2017-Nov-16 17:00N 38°02' E 023°35'0 0.5
2017-Nov-16 16:31N 38°02' E 023°35'0 0.0
2017-Nov-16 16:00N 38°02' E 023°35'0 0.0
2017-Nov-16 15:30N 38°02' E 023°35'0 0.0
2017-Nov-16 15:00N 38°02' E 023°35'0 0.0
2017-Nov-16 14:30N 38°02' E 023°35'0 0.0
2017-Nov-16 13:59N 38°02' E 023°35'0 0.0
2017-Nov-16 13:30N 38°02' E 023°35'0 0.0
2017-Nov-16 13:00N 38°02' E 023°35'0 0.0
2017-Nov-16 12:30N 38°02' E 023°35'0 0.0
2017-Nov-16 12:00N 38°02' E 023°35'0 0.0
2017-Nov-16 11:30N 38°02' E 023°35'0 0.0
2017-Nov-16 11:00N 38°02' E 023°35'0 0.0
2017-Nov-16 10:29N 38°02' E 023°35'0 0.0
2017-Nov-16 09:59N 38°02' E 023°35'0 0.0
2017-Nov-16 09:30N 38°02' E 023°35'0 0.0
2017-Nov-16 09:00N 38°02' E 023°35'0 0.0
2017-Nov-16 08:30N 38°02' E 023°35'0 0.0
2017-Nov-16 08:00N 38°02' E 023°35'0 0.0
2017-Nov-16 07:14N 38°02' E 023°35'0 0.0
2017-Nov-16 06:48N 38°02' E 023°35'0 0.0
2017-Nov-16 06:30N 38°02' E 023°35'0 0.0
2017-Nov-16 06:00N 38°02' E 023°35'0 0.0
2017-Nov-16 05:30N 38°02' E 023°35'0 0.0
2017-Nov-16 05:00N 38°02' E 023°35'0 0.0
2017-Nov-16 04:30N 38°02' E 023°35'0 0.0
2017-Nov-16 04:00N 38°02' E 023°35'0 0.0
2017-Nov-16 03:30N 38°02' E 023°35'0 0.0
2017-Nov-16 03:00N 38°02' E 023°35'0 0.0
2017-Nov-16 02:30N 38°02' E 023°35'0 0.0
2017-Nov-16 01:59N 38°02' E 023°35'0 0.0
2017-Nov-16 01:28N 38°02' E 023°35'0 0.0
2017-Nov-16 00:58N 38°02' E 023°35'0 0.0
2017-Nov-16 00:29N 38°02' E 023°35'0 0.0
2017-Nov-15 22:47N 38°02' E 023°35'0 0.0
2017-Nov-15 21:34N 38°02' E 023°35'0 0.1
2017-Nov-15 21:30N 38°02' E 023°35'0 0.0
2017-Nov-15 20:58N 38°02' E 023°35'0 0.0
2017-Nov-15 20:30N 38°02' E 023°35'0 0.0
2017-Nov-15 19:58N 38°02' E 023°35'0 0.0
2017-Nov-15 19:30N 38°02' E 023°35'0 0.0
2017-Nov-15 17:03N 38°02' E 023°35'0 0.2
2017-Nov-15 17:00N 38°02' E 023°35'1 2.7
2017-Nov-15 16:30N 38°02' E 023°34'510.1
2017-Nov-15 16:00N 38°00' E 023°28'3 6.7
2017-Nov-15 15:30N 37°58' E 023°25'510.2
2017-Nov-15 15:00N 37°56' E 023°19'5 9.9
2017-Nov-15 14:30N 37°55' E 023°13'510.3
2017-Nov-15 14:00N 37°54' E 023°06'4 7.5
2017-Nov-15 13:30N 37°55' E 023°02'0 0.1
2017-Nov-15 12:58N 37°55' E 023°02'0 0.1
2017-Nov-15 12:25N 37°55' E 023°02'0 0.0
2017-Nov-15 11:58N 37°55' E 023°02'0 0.0
2017-Nov-15 11:25N 37°55' E 023°02'0 0.0
2017-Nov-15 10:58N 37°55' E 023°02'0 0.0
2017-Nov-15 10:28N 37°55' E 023°02'0 0.1
2017-Nov-15 09:58N 37°55' E 023°02'0 0.0
2017-Nov-15 09:28N 37°55' E 023°02'0 0.1
2017-Nov-15 08:58N 37°55' E 023°02'0 0.0
2017-Nov-15 08:28N 37°55' E 023°02'0 0.0
2017-Nov-15 07:58N 37°55' E 023°02'0 0.1
2017-Nov-15 07:28N 37°55' E 023°02'0 0.0
2017-Nov-15 06:58N 37°55' E 023°02'0 0.0
2017-Nov-15 06:28N 37°55' E 023°02'0 0.1
2017-Nov-15 05:58N 37°55' E 023°02'0 0.1
2017-Nov-15 05:28N 37°55' E 023°02'0 0.1
2017-Nov-15 04:58N 37°55' E 023°02'0 0.1
2017-Nov-15 04:28N 37°55' E 023°02'0 0.0
2017-Nov-15 03:58N 37°55' E 023°02'0 0.0
2017-Nov-15 03:28N 37°55' E 023°02'0 0.0
2017-Nov-15 02:58N 37°55' E 023°02'0 0.0
2017-Nov-15 02:28N 37°55' E 023°02'0 0.1
2017-Nov-15 01:58N 37°55' E 023°02'0 0.0
2017-Nov-15 01:28N 37°55' E 023°02'0 0.1
2017-Nov-15 00:55N 37°55' E 023°02'0 0.1
2017-Nov-15 00:28N 37°55' E 023°02'0 0.0
2017-Nov-14 23:58N 37°55' E 023°02'0 0.0
2017-Nov-14 23:28N 37°55' E 023°02'0 0.0
2017-Nov-14 22:58N 37°55' E 023°02'0 0.1
2017-Nov-14 22:28N 37°55' E 023°02'0 0.0
2017-Nov-14 21:58N 37°55' E 023°02'0 0.1
2017-Nov-14 21:28N 37°55' E 023°02'0 0.1
2017-Nov-14 20:58N 37°55' E 023°02'0 0.1
2017-Nov-14 20:28N 37°55' E 023°02'0 0.0
2017-Nov-14 19:58N 37°55' E 023°02'0 0.0
2017-Nov-14 19:28N 37°55' E 023°02'0 0.0
2017-Nov-14 18:58N 37°55' E 023°02'0 0.0
2017-Nov-14 18:28N 37°55' E 023°02'0 0.0
2017-Nov-14 17:58N 37°55' E 023°02'0 0.0
2017-Nov-14 17:28N 37°55' E 023°02'0 0.0
2017-Nov-14 16:58N 37°55' E 023°02'0 0.0
2017-Nov-14 16:28N 37°55' E 023°02'0 0.0
2017-Nov-14 15:58N 37°55' E 023°02'0 0.0
2017-Nov-14 15:28N 37°55' E 023°02'0 0.1
2017-Nov-14 14:58N 37°55' E 023°02'0 0.0
2017-Nov-14 14:28N 37°55' E 023°02'0 0.1
2017-Nov-14 14:01N 37°55' E 023°02'0 0.0
2017-Nov-14 13:31N 37°55' E 023°02'0 0.1
2017-Nov-14 12:58N 37°55' E 023°02'0 0.0
2017-Nov-14 12:30N 37°55' E 023°02'0 0.0
2017-Nov-14 12:00N 37°55' E 023°02'0 0.0
2017-Nov-14 11:30N 37°55' E 023°02'0 0.0
2017-Nov-14 11:00N 37°55' E 023°02'0 0.0
2017-Nov-14 10:30N 37°55' E 023°02'0 0.0
2017-Nov-14 10:00N 37°55' E 023°02'0 0.0
2017-Nov-14 09:30N 37°55' E 023°02'0 0.0
2017-Nov-14 09:00N 37°55' E 023°02'0 0.0
2017-Nov-14 08:30N 37°55' E 023°02'0 0.0
2017-Nov-14 08:00N 37°55' E 023°02'0 0.0
2017-Nov-14 07:30N 37°55' E 023°02'0 0.0
2017-Nov-14 07:00N 37°55' E 023°02'0 0.1
2017-Nov-14 06:30N 37°55' E 023°02'0 0.0
2017-Nov-14 06:00N 37°55' E 023°02'0 0.0
2017-Nov-14 05:30N 37°55' E 023°02'0 0.1
2017-Nov-14 05:00N 37°55' E 023°02'0 0.1
2017-Nov-14 04:30N 37°55' E 023°02'0 0.1
2017-Nov-14 04:00N 37°55' E 023°02'0 0.1
2017-Nov-14 03:30N 37°55' E 023°02'0 0.0
2017-Nov-14 03:00N 37°55' E 023°02'0 0.0
2017-Nov-14 02:30N 37°55' E 023°02'0 0.0
2017-Nov-14 02:00N 37°55' E 023°02'0 0.1
2017-Nov-14 01:30N 37°55' E 023°02'0 0.1
2017-Nov-14 01:00N 37°55' E 023°02'0 0.0
2017-Nov-14 00:30N 37°55' E 023°02'0 0.0
2017-Nov-14 00:00N 37°55' E 023°02'0 0.1
2017-Nov-13 23:30N 37°55' E 023°02'0 0.0
2017-Nov-13 23:00N 37°55' E 023°02'0 0.0
2017-Nov-13 22:30N 37°55' E 023°02'0 0.1
2017-Nov-13 22:00N 37°55' E 023°02'0 0.0
2017-Nov-13 02:00N 37°55' E 023°01'0 0.0
2017-Nov-13 01:31N 37°55' E 023°01'0 0.0
2017-Nov-13 01:00N 37°55' E 023°01'0 0.0
2017-Nov-13 00:30N 37°55' E 023°01'0 0.0
2017-Nov-13 00:00N 37°55' E 023°01'0 0.0
2017-Nov-12 23:30N 37°55' E 023°01'0 0.0
2017-Nov-12 23:00N 37°55' E 023°01'0 0.0
2017-Nov-12 22:30N 37°55' E 023°01'0 0.0
2017-Nov-12 22:00N 37°55' E 023°01'0 0.0
2017-Nov-12 21:30N 37°55' E 023°01'0 0.0
2017-Nov-12 21:00N 37°55' E 023°01'0 0.0
2017-Nov-12 20:30N 37°55' E 023°01'0 0.0
2017-Nov-12 20:00N 37°55' E 023°01'0 0.0
2017-Nov-12 19:30N 37°55' E 023°01'0 0.0
2017-Nov-12 19:00N 37°55' E 023°01'0 0.0
2017-Nov-12 18:30N 37°55' E 023°01'0 0.0
2017-Nov-12 18:00N 37°55' E 023°01'0 0.0
2017-Nov-12 17:30N 37°55' E 023°01'0 0.0
2017-Nov-12 17:00N 37°55' E 023°01'0 0.0
2017-Nov-12 16:30N 37°55' E 023°01'0 0.0
2017-Nov-12 16:00N 37°55' E 023°01'0 0.0
2017-Nov-12 15:30N 37°55' E 023°01'0 0.0
2017-Nov-12 15:01N 37°55' E 023°01'0 0.0
2017-Nov-12 14:30N 37°55' E 023°01'0 0.0
2017-Nov-12 14:00N 37°55' E 023°01'0 0.0
2017-Nov-12 13:30N 37°55' E 023°01'0 0.0
2017-Nov-12 13:00N 37°55' E 023°01'0 0.0
2017-Nov-12 12:30N 37°55' E 023°01'0 0.0
2017-Nov-12 12:00N 37°55' E 023°01'0 0.0
2017-Nov-12 11:30N 37°55' E 023°01'0 0.0
2017-Nov-12 11:00N 37°55' E 023°01'0 0.0
2017-Nov-12 10:30N 37°55' E 023°01'0 0.0
2017-Nov-12 10:00N 37°55' E 023°01'0 0.0
2017-Nov-12 09:30N 37°55' E 023°01'0 0.0
2017-Nov-12 09:00N 37°55' E 023°01'0 0.0
2017-Nov-12 08:31N 37°55' E 023°01'0 0.0
2017-Nov-12 08:00N 37°55' E 023°01'0 0.0
2017-Nov-12 07:30N 37°55' E 023°01'0 0.0
2017-Nov-12 07:00N 37°55' E 023°01'0 0.0
2017-Nov-12 06:30N 37°55' E 023°01'0 0.0
2017-Nov-12 06:00N 37°55' E 023°01'0 0.0
2017-Nov-12 05:30N 37°55' E 023°01'0 0.0
2017-Nov-12 05:00N 37°55' E 023°01'0 0.0
2017-Nov-12 04:30N 37°55' E 023°01'0 0.0
2017-Nov-12 04:00N 37°55' E 023°01'0 0.0
2017-Nov-12 03:30N 37°55' E 023°01'0 0.0
2017-Nov-12 03:00N 37°55' E 023°01'0 0.0
2017-Nov-12 02:30N 37°55' E 023°01'0 0.0
2017-Nov-12 02:00N 37°55' E 023°01'0 0.0
2017-Nov-12 01:30N 37°55' E 023°01'0 0.0
2017-Nov-12 01:00N 37°55' E 023°01'0 0.0
2017-Nov-12 00:30N 37°55' E 023°01'0 0.0
2017-Nov-12 00:00N 37°55' E 023°01'0 0.0
2017-Nov-11 23:30N 37°55' E 023°01'0 0.0
2017-Nov-11 23:00N 37°55' E 023°01'0 0.0
2017-Nov-11 22:30N 37°55' E 023°01'0 0.0
2017-Nov-11 22:00N 37°55' E 023°01'0 0.0
2017-Nov-11 21:30N 37°55' E 023°01'0 0.0
2017-Nov-11 21:00N 37°55' E 023°01'0 0.0
2017-Nov-11 20:30N 37°55' E 023°01'0 0.0
2017-Nov-11 20:00N 37°55' E 023°01'0 0.0
2017-Nov-11 19:30N 37°55' E 023°01'0 0.0
2017-Nov-11 19:00N 37°55' E 023°01'0 0.0
2017-Nov-11 18:30N 37°55' E 023°01'0 0.0
2017-Nov-11 18:00N 37°55' E 023°01'0 0.0
2017-Nov-11 17:30N 37°55' E 023°01'0 0.0
2017-Nov-11 17:00N 37°55' E 023°01'0 0.0
2017-Nov-11 16:30N 37°55' E 023°01'0 0.0
2017-Nov-11 16:00N 37°55' E 023°01'0 0.0
2017-Nov-11 15:30N 37°55' E 023°01'0 0.0
2017-Nov-11 15:00N 37°55' E 023°01'0 0.0
2017-Nov-11 14:30N 37°55' E 023°01'0 0.0
2017-Nov-11 14:00N 37°55' E 023°01'0 0.0
2017-Nov-11 13:31N 37°55' E 023°01'0 0.0
2017-Nov-11 13:00N 37°55' E 023°01'0 0.0
2017-Nov-11 12:30N 37°55' E 023°01'0 0.0
2017-Nov-11 12:00N 37°55' E 023°01'0 0.0
2017-Nov-11 11:30N 37°55' E 023°01'0 0.0
2017-Nov-11 11:00N 37°55' E 023°01'0 0.0
2017-Nov-11 10:30N 37°55' E 023°01'0 0.0
2017-Nov-11 10:00N 37°55' E 023°01'0 0.0
2017-Nov-11 09:30N 37°55' E 023°01'0 0.0
2017-Nov-11 09:00N 37°55' E 023°01'0 0.0
2017-Nov-11 08:30N 37°55' E 023°01'0 0.0
2017-Nov-11 08:00N 37°55' E 023°01'0 0.0
2017-Nov-11 07:30N 37°55' E 023°01'0 0.0
2017-Nov-11 07:00N 37°55' E 023°01'0 0.0
2017-Nov-11 06:30N 37°55' E 023°01'0 0.0
2017-Nov-11 06:00N 37°55' E 023°01'0 0.0
2017-Nov-11 05:30N 37°55' E 023°01'0 0.0
2017-Nov-11 05:00N 37°55' E 023°01'0 0.0
2017-Nov-11 04:30N 37°55' E 023°01'0 0.0
2017-Nov-11 04:00N 37°55' E 023°01'0 0.0
2017-Nov-11 03:30N 37°55' E 023°01'0 0.0
2017-Nov-11 03:00N 37°55' E 023°01'0 0.0
2017-Nov-11 02:30N 37°55' E 023°01'0 0.0
2017-Nov-11 02:00N 37°55' E 023°01'0 0.0
2017-Nov-11 01:30N 37°55' E 023°01'0 0.0
2017-Nov-11 01:00N 37°55' E 023°01'0 0.0
2017-Nov-11 00:30N 37°55' E 023°01'0 0.0
2017-Nov-11 00:00N 37°55' E 023°01'0 0.0
2017-Nov-10 23:30N 37°55' E 023°01'0 0.0
2017-Nov-10 23:00N 37°55' E 023°01'0 0.0
2017-Nov-10 22:30N 37°55' E 023°01'0 0.0
2017-Nov-10 22:00N 37°55' E 023°01'0 0.0
2017-Nov-10 21:30N 37°55' E 023°01'0 0.0
2017-Nov-10 21:00N 37°55' E 023°01'0 0.0
2017-Nov-10 20:30N 37°55' E 023°01'0 0.0
2017-Nov-10 20:00N 37°55' E 023°01'0 0.0
2017-Nov-10 19:30N 37°55' E 023°01'0 0.0
2017-Nov-10 19:00N 37°55' E 023°01'0 0.0
2017-Nov-10 18:30N 37°55' E 023°01'0 0.0
2017-Nov-10 18:00N 37°55' E 023°01'0 0.0
2017-Nov-10 17:30N 37°55' E 023°01'0 0.0
2017-Nov-10 17:00N 37°55' E 023°01'0 0.0
2017-Nov-10 16:30N 37°55' E 023°01'0 0.0
2017-Nov-10 16:00N 37°55' E 023°01'0 0.0
2017-Nov-10 15:30N 37°55' E 023°01'0 0.0
2017-Nov-10 15:00N 37°55' E 023°01'0 0.0
2017-Nov-10 14:30N 37°55' E 023°01'0 0.0
2017-Nov-10 14:00N 37°55' E 023°01'0 0.0
2017-Nov-10 13:30N 37°55' E 023°01'0 0.0
2017-Nov-10 13:00N 37°55' E 023°01'0 0.0
2017-Nov-10 12:30N 37°55' E 023°01'0 0.0
2017-Nov-10 12:00N 37°55' E 023°01'0 0.0
2017-Nov-10 11:30N 37°55' E 023°01'0 0.0
2017-Nov-10 11:00N 37°55' E 023°01'0 0.0
2017-Nov-10 10:30N 37°55' E 023°01'0 0.2
2017-Nov-10 10:00N 37°55' E 023°01'4 7.3
2017-Nov-10 09:30N 37°53' E 023°05'5 9.4
2017-Nov-10 09:00N 37°50' E 023°10'5 9.5
2017-Nov-10 08:30N 37°47' E 023°14'5 9.7
2017-Nov-10 08:00N 37°42' E 023°17'4 8.8
2017-Nov-10 07:30N 37°40' E 023°22'510.0
2017-Nov-10 07:00N 37°39' E 023°28'5 9.8
2017-Nov-10 06:30N 37°38' E 023°34'5 9.7
2017-Nov-10 06:00N 37°37' E 023°40'5 9.9
2017-Nov-10 05:30N 37°36' E 023°46'11 9.8
2017-Nov-10 04:25N 37°36' E 023°59'156 9.3
2017-Nov-09 11:35N 40°10' E 024°29'111.0
2017-Nov-09 11:30N 40°11' E 024°28'510.7
2017-Nov-09 11:00N 40°17' E 024°27'510.2
2017-Nov-09 10:30N 40°22' E 024°26'510.1
2017-Nov-09 10:00N 40°27' E 024°26'510.2
2017-Nov-09 09:30N 40°32' E 024°26'510.2
2017-Nov-09 09:00N 40°37' E 024°26'510.0
2017-Nov-09 08:30N 40°42' E 024°25'5 9.6
2017-Nov-09 08:00N 40°47' E 024°26'510.1
2017-Nov-09 07:30N 40°51' E 024°28'5 9.0
2017-Nov-09 07:00N 40°56' E 024°29'1 2.2
2017-Nov-09 06:30N 40°57' E 024°29'0 0.0
2017-Nov-09 06:00N 40°57' E 024°29'0 0.0
2017-Nov-09 05:30N 40°57' E 024°29'0 0.0
2017-Nov-09 05:00N 40°57' E 024°29'0 0.0
2017-Nov-09 04:30N 40°57' E 024°29'0 0.0
2017-Nov-09 04:00N 40°57' E 024°29'  

Dump ship's entire track history